Time;durP1;ratioP1;P1;durP2;ratioP2;P2;SDS_P1;SDS_P2;PMS_P1;PMS_P2;Temp;Humidity;BMP_temperature;BMP_pressure;BME280_temperature;BME280_humidity;BME280_pressure;Samples;Min_cycle;Max_cycle;Signal;HPM_P1;HPM_P2
2021/11/27 00:00:15;;;;;;;3.90;1.55;;;;;;;3.40;87.29;97706.78;701431;28;1102;-50
2021/11/27 00:00:39;;;;;;;3.30;1.40;;;;;;;3.38;86.76;97700.00;701408;28;1115;-54
2021/11/27 00:01:00;;;;;;;2.83;1.40;;;;;;;3.47;86.33;97696.31;699764;28;4597;-51
2021/11/27 00:01:20;;;;;;;3.05;1.30;;;;;;;3.46;86.39;97700.66;698470;28;1789;-53
2021/11/27 00:01:42;;;;;;;2.92;1.20;;;;;;;3.44;86.96;97696.41;697239;28;3691;-51
2021/11/27 00:02:03;;;;;;;2.75;1.45;;;;;;;3.36;87.03;97697.41;698328;28;1370;-51
2021/11/27 00:02:24;;;;;;;3.50;1.40;;;;;;;3.31;87.73;97698.41;698945;28;1343;-52
2021/11/27 00:02:45;;;;;;;2.85;1.30;;;;;;;3.36;87.39;97697.41;697643;28;1099;-50
2021/11/27 00:03:06;;;;;;;2.70;1.40;;;;;;;3.40;87.17;97706.78;699180;28;1171;-52
2021/11/27 00:03:27;;;;;;;2.58;1.20;;;;;;;3.50;86.77;97701.41;700064;28;1186;-53
2021/11/27 00:03:48;;;;;;;2.45;1.30;;;;;;;3.57;87.34;97696.06;699378;28;1193;-54
2021/11/27 00:04:09;;;;;;;2.90;1.50;;;;;;;3.52;86.83;97699.66;697691;28;4337;-50
2021/11/27 00:04:30;;;;;;;2.70;1.48;;;;;;;3.57;86.44;97700.38;697838;28;3194;-53
2021/11/27 00:04:50;;;;;;;3.53;1.58;;;;;;;3.53;87.07;97701.34;698230;28;2201;-52
2021/11/27 00:05:12;;;;;;;3.43;1.60;;;;;;;3.39;88.30;97699.06;698683;28;1320;-54
2021/11/27 00:05:34;;;;;;;3.25;1.50;;;;;;;3.40;87.61;97701.63;699241;28;1216;-51
2021/11/27 00:05:57;;;;;;;3.15;1.35;;;;;;;3.36;88.04;97700.00;699848;28;3691;-50
2021/11/27 00:06:17;;;;;;;3.10;1.40;;;;;;;3.30;88.21;97705.31;698700;28;2186;-57
2021/11/27 00:06:38;;;;;;;2.87;1.40;;;;;;;3.26;88.67;97702.84;698754;28;1152;-52
2021/11/27 00:06:58;;;;;;;2.92;1.30;;;;;;;3.22;89.05;97694.31;697866;28;4317;-54
2021/11/27 00:07:19;;;;;;;2.78;1.40;;;;;;;3.26;87.95;97702.84;698216;28;1340;-51
2021/11/27 00:07:39;;;;;;;3.00;1.40;;;;;;;3.24;87.80;97698.56;698938;28;1925;-53
2021/11/27 00:08:02;;;;;;;3.03;1.58;;;;;;;3.24;88.22;97705.47;695287;28;1119;-53
2021/11/27 00:08:23;;;;;;;3.70;1.60;;;;;;;3.27;89.05;97696.78;694300;28;1174;-54
2021/11/27 00:08:43;;;;;;;3.13;1.50;;;;;;;3.33;87.62;97692.31;694640;28;3357;-52
2021/11/27 00:09:04;;;;;;;3.05;1.50;;;;;;;3.34;87.37;97696.63;699260;28;1142;-55
2021/11/27 00:09:25;;;;;;;3.22;1.40;;;;;;;3.32;88.30;97702.69;698535;28;1414;-53
2021/11/27 00:09:45;;;;;;;2.47;1.20;;;;;;;3.31;88.30;97696.69;697651;28;1116;-55
2021/11/27 00:10:08;;;;;;;2.50;1.20;;;;;;;3.29;88.75;97695.88;701293;28;4560;-53
2021/11/27 00:10:30;;;;;;;2.75;1.27;;;;;;;3.42;87.94;97691.28;701710;28;904;-53
2021/11/27 00:10:53;;;;;;;3.30;1.50;;;;;;;3.45;87.65;97696.38;700558;28;1055;-52
2021/11/27 00:11:15;;;;;;;3.75;1.65;;;;;;;3.38;87.94;97697.41;698354;28;1187;-55
2021/11/27 00:11:35;;;;;;;2.83;1.40;;;;;;;3.31;88.06;97701.00;699132;28;1388;-54
2021/11/27 00:11:55;;;;;;;3.23;1.30;;;;;;;3.36;88.07;97702.56;699958;28;3235;-55
2021/11/27 00:12:16;;;;;;;3.53;1.50;;;;;;;3.33;88.19;97700.06;701144;28;1113;-53
2021/11/27 00:12:37;;;;;;;3.17;1.33;;;;;;;3.41;87.19;97698.16;701133;28;1315;-55
2021/11/27 00:12:58;;;;;;;2.78;1.30;;;;;;;3.38;86.97;97693.06;701351;28;4312;-56
2021/11/27 00:13:20;;;;;;;2.67;1.35;;;;;;;3.47;87.49;97697.16;701243;28;1311;-51
2021/11/27 00:13:40;;;;;;;2.58;1.33;;;;;;;3.58;85.96;97696.91;701367;28;1070;-52
2021/11/27 00:14:01;;;;;;;3.00;1.40;;;;;;;3.53;86.02;97697.03;701349;28;1015;-56
2021/11/27 00:14:22;;;;;;;2.53;1.35;;;;;;;3.51;86.25;97697.97;699915;28;950;-58
2021/11/27 00:14:42;;;;;;;2.72;1.30;;;;;;;3.46;87.04;97699.78;697788;28;1212;-54
2021/11/27 00:15:03;;;;;;;2.93;1.40;;;;;;;3.45;87.28;97701.53;702090;28;1864;-52
2021/11/27 00:15:25;;;;;;;3.00;1.50;;;;;;;3.42;87.36;97696.44;702231;28;1289;-53
2021/11/27 00:15:48;;;;;;;2.70;1.30;;;;;;;3.37;87.76;97695.69;702075;28;1064;-55
2021/11/27 00:16:08;;;;;;;2.90;1.40;;;;;;;3.37;87.71;97693.94;700352;28;4910;-55
2021/11/27 00:16:29;;;;;;;3.13;1.40;;;;;;;3.35;88.80;97695.75;701225;28;1042;-53
2021/11/27 00:16:49;;;;;;;3.77;1.50;;;;;;;3.31;89.22;97691.53;700425;28;1226;-54
2021/11/27 00:17:10;;;;;;;2.58;1.40;;;;;;;3.31;88.19;97696.69;698835;28;1082;-51
2021/11/27 00:17:30;;;;;;;3.87;1.50;;;;;;;3.29;87.97;97692.44;699062;28;1071;-55
2021/11/27 00:17:51;;;;;;;3.13;1.40;;;;;;;3.23;88.10;97691.69;700554;28;1310;-53
2021/11/27 00:18:12;;;;;;;2.72;1.42;;;;;;;3.17;88.42;97690.97;697076;28;3312;-53
2021/11/27 00:18:34;;;;;;;2.70;1.40;;;;;;;3.15;89.23;97691.00;694149;28;3562;-51
2021/11/27 00:18:54;;;;;;;3.53;1.55;;;;;;;3.19;89.32;97690.06;696678;28;1121;-54
2021/11/27 00:19:15;;;;;;;2.90;1.50;;;;;;;3.15;89.52;97692.75;695372;28;4531;-56
2021/11/27 00:19:35;;;;;;;3.30;1.50;;;;;;;3.20;89.37;97693.50;696384;28;1173;-54
2021/11/27 00:19:55;;;;;;;3.30;1.50;;;;;;;3.20;89.65;97688.34;695751;28;1119;-55
2021/11/27 00:20:20;;;;;;;3.13;1.50;;;;;;;3.17;90.06;97696.13;695343;28;1080;-52
2021/11/27 00:20:45;;;;;;;4.07;1.30;;;;;;;3.12;89.77;97687.66;698640;28;2683;-55
2021/11/27 00:21:09;;;;;;;2.70;1.30;;;;;;;3.12;90.22;97685.09;698366;28;1305;-52
2021/11/27 00:21:29;;;;;;;2.60;1.40;;;;;;;3.24;90.17;97689.97;698396;28;3346;-54
2021/11/27 00:21:49;;;;;;;3.03;1.30;;;;;;;3.24;89.53;97684.81;697361;28;3702;-57
2021/11/27 00:22:10;;;;;;;3.00;1.23;;;;;;;3.24;89.33;97692.56;698764;28;4558;-52
2021/11/27 00:22:30;;;;;;;2.90;1.25;;;;;;;3.19;89.23;97681.47;696366;28;1076;-56
2021/11/27 00:22:52;;;;;;;2.90;1.30;;;;;;;3.14;89.86;97683.31;698581;28;1094;-53
2021/11/27 00:23:13;;;;;;;2.55;1.23;;;;;;;3.06;90.46;97689.50;698667;28;1130;-53
2021/11/27 00:23:36;;;;;;;2.30;1.15;;;;;;;3.10;90.91;97689.41;698724;28;1067;-52
2021/11/27 00:23:56;;;;;;;2.95;1.30;;;;;;;3.13;90.46;97686.75;698248;28;1230;-51
2021/11/27 00:24:17;;;;;;;2.65;1.20;;;;;;;3.16;89.60;97682.41;693880;28;1407;-53
2021/11/27 00:24:37;;;;;;;2.87;1.27;;;;;;;3.18;89.71;97684.94;696352;28;2139;-52
2021/11/27 00:24:58;;;;;;;2.03;1.17;;;;;;;3.16;90.10;97681.56;693858;28;4508;-51
2021/11/27 00:25:19;;;;;;;1.97;1.20;;;;;;;3.14;90.07;97689.31;694459;28;1478;-55
2021/11/27 00:25:41;;;;;;;2.20;1.17;;;;;;;3.10;90.75;97685.09;695067;28;1195;-53
2021/11/27 00:26:04;;;;;;;2.90;1.20;;;;;;;3.06;91.00;97678.34;695429;28;1068;-52
2021/11/27 00:26:24;;;;;;;2.95;1.27;;;;;;;3.02;91.18;97684.44;696148;28;1298;-55
2021/11/27 00:26:45;;;;;;;3.03;1.30;;;;;;;2.99;91.35;97685.38;694087;28;1099;-52
2021/11/27 00:27:06;;;;;;;2.80;1.30;;;;;;;2.98;91.32;97678.50;695460;28;1162;-53
2021/11/27 00:27:27;;;;;;;2.42;1.20;;;;;;;3.06;91.21;97680.91;696678;28;1910;-54
2021/11/27 00:27:47;;;;;;;2.17;1.20;;;;;;;3.10;92.17;97684.25;697912;28;1075;-54
2021/11/27 00:28:08;;;;;;;1.80;1.10;;;;;;;3.15;91.08;97679.84;697632;28;4492;-53
2021/11/27 00:28:29;;;;;;;1.90;1.10;;;;;;;3.16;91.00;97681.56;697272;28;1308;-53
2021/11/27 00:28:49;;;;;;;2.70;1.15;;;;;;;3.18;90.47;97674.63;701891;28;1187;-55
2021/11/27 00:29:10;;;;;;;2.03;1.10;;;;;;;3.16;90.30;97681.56;701645;28;1073;-52
2021/11/27 00:29:30;;;;;;;2.50;1.20;;;;;;;3.17;90.37;97683.22;700028;28;1159;-54
2021/11/27 00:29:51;;;;;;;2.30;1.10;;;;;;;3.14;90.57;97683.31;698947;28;1363;-53
2021/11/27 00:30:15;;;;;;;2.07;1.10;;;;;;;3.12;90.88;97680.75;698140;28;1151;-53
2021/11/27 00:30:38;;;;;;;2.63;1.08;;;;;;;3.08;90.78;97678.31;697961;28;1068;-52
2021/11/27 00:31:02;;;;;;;2.00;1.08;;;;;;;3.05;90.87;97676.63;698901;28;4923;-55
2021/11/27 00:31:25;;;;;;;1.60;0.90;;;;;;;3.09;91.16;97677.38;697750;28;3748;-52
2021/11/27 00:31:46;;;;;;;2.90;0.98;;;;;;;3.11;90.86;97680.81;698186;28;1179;-54
2021/11/27 00:32:07;;;;;;;3.20;1.00;;;;;;;3.11;90.57;97679.06;695947;28;1092;-53
2021/11/27 00:32:30;;;;;;;2.50;0.90;;;;;;;3.07;90.95;97682.59;696064;28;1478;-54
2021/11/27 00:32:51;;;;;;;1.73;1.00;;;;;;;3.02;90.93;97682.72;691521;28;1101;-55
2021/11/27 00:33:11;;;;;;;2.80;1.10;;;;;;;2.99;91.74;97680.19;686257;28;1228;-51
2021/11/27 00:33:32;;;;;;;2.00;0.90;;;;;;;2.96;91.63;97682.00;687050;28;1249;-54
2021/11/27 00:33:55;;;;;;;1.50;0.90;;;;;;;3.18;90.82;97674.63;688395;28;1268;-52
2021/11/27 00:34:16;;;;;;;2.08;1.00;;;;;;;3.23;90.33;97683.09;687658;28;4610;-53
2021/11/27 00:34:37;;;;;;;2.20;1.00;;;;;;;3.20;90.18;97680.59;689351;28;3751;-56
2021/11/27 00:34:57;;;;;;;2.10;1.10;;;;;;;3.19;90.10;97677.16;691615;28;1289;-52
2021/11/27 00:35:20;;;;;;;2.15;1.10;;;;;;;3.15;91.48;97680.69;690564;28;1467;-52
2021/11/27 00:35:41;;;;;;;1.60;0.90;;;;;;;3.10;91.23;97679.94;691800;28;1611;-51
2021/11/27 00:36:02;;;;;;;1.95;1.08;;;;;;;3.08;91.03;97678.31;695925;28;1332;-54
2021/11/27 00:36:24;;;;;;;1.85;1.00;;;;;;;3.03;91.57;97680.97;696434;28;1308;-55
2021/11/27 00:36:45;;;;;;;2.17;1.10;;;;;;;3.00;91.79;97683.63;696479;28;1036;-54
2021/11/27 00:37:05;;;;;;;2.43;1.00;;;;;;;2.97;91.50;97676.78;696144;28;4334;-52
2021/11/27 00:37:26;;;;;;;1.67;0.90;;;;;;;2.96;91.92;97682.81;696113;28;1418;-53
2021/11/27 00:37:48;;;;;;;1.53;0.90;;;;;;;2.93;91.97;97682.06;692079;28;3160;-52
2021/11/27 00:38:09;;;;;;;1.75;0.80;;;;;;;2.90;92.22;97680.38;691502;28;3904;-55
2021/11/27 00:38:30;;;;;;;1.70;0.80;;;;;;;2.89;92.21;97678.69;696765;28;1389;-53
2021/11/27 00:38:53;;;;;;;1.92;0.93;;;;;;;2.87;92.22;97676.13;698046;28;1216;-54
2021/11/27 00:39:13;;;;;;;3.13;1.40;;;;;;;2.85;92.42;97677.91;696173;28;3964;-52
2021/11/27 00:39:34;;;;;;;2.50;1.30;;;;;;;2.88;92.44;97685.59;699293;28;1121;-56
2021/11/27 00:39:54;;;;;;;3.30;1.30;;;;;;;2.89;92.85;97683.84;700120;28;1252;-53
2021/11/27 00:40:15;;;;;;;2.30;1.00;;;;;;;3.03;91.78;97679.25;698191;28;4437;-54
2021/11/27 00:40:40;;;;;;;1.67;0.95;;;;;;;3.01;91.56;97675.84;694213;28;1322;-52
2021/11/27 00:41:01;;;;;;;2.13;0.90;;;;;;;3.02;91.66;97677.53;691345;28;3339;-55
2021/11/27 00:41:22;;;;;;;1.70;0.98;;;;;;;3.01;91.75;97678.41;691066;28;4188;-52
2021/11/27 00:41:42;;;;;;;1.30;0.90;;;;;;;3.01;91.86;97682.75;691305;28;1298;-53
2021/11/27 00:42:03;;;;;;;1.40;0.80;;;;;;;3.01;91.70;97681.00;692107;28;1368;-55
2021/11/27 00:42:24;;;;;;;1.60;0.80;;;;;;;3.01;91.63;97672.41;692296;28;1565;-53
2021/11/27 00:42:45;;;;;;;2.00;0.82;;;;;;;2.97;92.23;97666.47;693397;28;1131;-56
2021/11/27 00:43:10;;;;;;;1.25;0.80;;;;;;;2.93;92.11;97674.31;693594;28;4790;-59
2021/11/27 00:43:31;;;;;;;1.55;0.90;;;;;;;2.93;92.79;97685.47;691947;28;1196;-52
2021/11/27 00:43:52;;;;;;;1.30;0.90;;;;;;;2.96;91.93;97679.41;691474;28;1218;-56
2021/11/27 00:44:12;;;;;;;1.63;0.90;;;;;;;2.95;92.00;97677.69;691834;28;2127;-52
2021/11/27 00:44:32;;;;;;;1.30;0.90;;;;;;;2.92;91.91;97676.03;695352;28;2904;-52
2021/11/27 00:44:53;;;;;;;1.77;0.90;;;;;;;2.98;92.87;97678.50;698102;28;1263;-52
2021/11/27 00:45:16;;;;;;;2.20;1.10;;;;;;;2.97;91.93;97681.13;697020;28;1141;-54
2021/11/27 00:45:39;;;;;;;2.40;1.10;;;;;;;2.97;91.78;97681.94;698672;28;1213;-53
2021/11/27 00:46:01;;;;;;;2.22;1.08;;;;;;;2.96;92.47;97677.66;693437;28;4473;-55
2021/11/27 00:46:21;;;;;;;2.15;1.00;;;;;;;2.98;91.99;97675.06;691471;28;1397;-54
2021/11/27 00:46:42;;;;;;;1.88;1.00;;;;;;;3.00;91.96;97675.88;690677;28;1413;-52
2021/11/27 00:47:03;;;;;;;1.60;0.93;;;;;;;3.02;91.95;97679.28;690384;28;1314;-56
2021/11/27 00:47:23;;;;;;;1.88;1.00;;;;;;;3.00;91.82;97676.72;694216;28;1823;-52
2021/11/27 00:47:48;;;;;;;2.33;1.00;;;;;;;2.96;91.91;97677.66;692509;28;3637;-54
2021/11/27 00:48:09;;;;;;;1.55;0.95;;;;;;;2.93;92.19;97684.63;694459;28;1206;-53
2021/11/27 00:48:30;;;;;;;1.67;1.05;;;;;;;2.94;91.89;97682.03;691566;28;1424;-53
2021/11/27 00:48:51;;;;;;;1.40;0.90;;;;;;;2.93;92.22;97682.06;690877;28;1254;-52
2021/11/27 00:49:12;;;;;;;1.40;0.80;;;;;;;2.89;92.79;97679.56;689769;28;5690;-53
2021/11/27 00:49:33;;;;;;;2.00;0.80;;;;;;;3.14;91.26;97675.56;687636;28;1252;-54
2021/11/27 00:49:54;;;;;;;1.60;0.90;;;;;;;3.21;91.16;97680.56;689852;28;1230;-52
2021/11/27 00:50:18;;;;;;;2.45;1.08;;;;;;;3.27;90.81;97679.56;692914;28;1128;-55
2021/11/27 00:50:45;;;;;;;3.28;0.98;;;;;;;3.27;91.38;97682.16;694723;28;3450;-52
2021/11/27 00:51:17;;;;;;;2.22;1.15;;;;;;;3.20;90.71;97681.44;697058;28;1118;-52
2021/11/27 00:51:38;;;;;;;1.92;0.90;;;;;;;3.19;91.40;97681.47;696276;28;1194;-55
2021/11/27 00:51:59;;;;;;;1.35;0.90;;;;;;;3.26;91.11;97677.88;698346;28;4460;-51
2021/11/27 00:52:21;;;;;;;2.15;0.90;;;;;;;3.32;90.86;97682.88;694955;28;1384;-52
2021/11/27 00:52:42;;;;;;;1.48;0.90;;;;;;;3.33;90.83;97683.75;693639;28;1368;-55
2021/11/27 00:53:05;;;;;;;1.98;0.93;;;;;;;3.21;90.96;97682.28;695582;28;1349;-52
2021/11/27 00:53:26;;;;;;;2.03;0.93;;;;;;;3.16;91.60;97682.41;693829;28;1439;-53
2021/11/27 00:53:47;;;;;;;2.03;0.93;;;;;;;3.12;91.45;97674.78;694149;28;3186;-55
2021/11/27 00:54:08;;;;;;;1.70;0.90;;;;;;;3.06;92.04;97686.09;696040;28;3496;-52
2021/11/27 00:54:29;;;;;;;1.73;0.97;;;;;;;3.06;91.90;97681.75;697671;28;1201;-51
2021/11/27 00:54:49;;;;;;;2.13;1.00;;;;;;;3.03;91.99;97687.00;694115;28;1648;-51
2021/11/27 00:55:10;;;;;;;1.77;0.88;;;;;;;3.00;92.37;97681.88;691335;28;4548;-53
2021/11/27 00:55:32;;;;;;;1.75;0.85;;;;;;;3.03;92.45;97687.00;690718;28;1124;-56
2021/11/27 00:55:53;;;;;;;1.40;0.90;;;;;;;3.10;92.25;97686.84;690620;28;1171;-56
2021/11/27 00:56:14;;;;;;;2.08;1.00;;;;;;;3.10;92.09;97684.25;691066;28;1278;-56
2021/11/27 00:56:35;;;;;;;1.48;0.90;;;;;;;3.26;91.95;97685.63;691415;28;1410;-53
2021/11/27 00:56:56;;;;;;;1.25;0.90;;;;;;;3.33;91.22;97679.41;690022;28;3177;-56
2021/11/27 00:57:16;;;;;;;2.13;1.05;;;;;;;3.37;91.21;97675.88;689023;28;3953;-51
2021/11/27 00:57:38;;;;;;;1.77;0.90;;;;;;;3.31;91.29;97685.50;685907;28;1160;-51
2021/11/27 00:57:59;;;;;;;1.73;0.90;;;;;;;3.19;92.91;97681.47;684620;28;4562;-55
2021/11/27 00:58:20;;;;;;;1.95;0.98;;;;;;;3.26;92.07;97685.63;688801;28;1453;-55
2021/11/27 00:58:42;;;;;;;2.00;0.90;;;;;;;3.23;92.11;97681.38;689127;28;1346;-55
2021/11/27 00:59:03;;;;;;;1.30;0.90;;;;;;;3.14;93.14;97683.31;692376;28;1381;-53
2021/11/27 00:59:23;;;;;;;1.40;0.93;;;;;;;3.05;93.37;97684.38;693935;28;1443;-52
2021/11/27 00:59:46;;;;;;;1.40;0.90;;;;;;;3.01;93.25;97680.16;696600;28;1381;-54
2021/11/27 01:00:13;;;;;;;1.77;0.98;;;;;;;2.95;92.88;97694.06;692367;28;2134;-51
2021/11/27 01:00:38;;;;;;;1.73;0.90;;;;;;;2.95;93.07;97688.03;691500;28;3438;-54
2021/11/27 01:01:06;;;;;;;1.85;1.10;;;;;;;2.91;93.74;97676.94;694766;28;4399;-54
2021/11/27 01:01:31;;;;;;;1.45;0.90;;;;;;;2.89;93.14;97676.97;694002;28;1241;-54
2021/11/27 01:01:52;;;;;;;1.60;0.90;;;;;;;2.85;93.06;97675.34;694190;28;1235;-53
2021/11/27 01:02:13;;;;;;;1.70;1.08;;;;;;;2.82;93.52;97677.97;697251;28;1391;-53
2021/11/27 01:02:34;;;;;;;2.83;1.17;;;;;;;2.85;94.33;97671.91;697775;28;1194;-52
2021/11/27 01:03:02;;;;;;;2.42;1.10;;;;;;;2.96;94.22;97679.41;695585;28;1349;-52
2021/11/27 01:03:26;;;;;;;2.70;1.10;;;;;;;2.98;94.66;97673.34;692594;28;1330;-54
2021/11/27 01:03:50;;;;;;;2.60;1.10;;;;;;;3.13;93.29;97682.47;691351;28;3485;-54
2021/11/27 01:04:11;;;;;;;3.10;1.13;;;;;;;3.10;93.34;97687.69;686568;28;4641;-52
2021/11/27 01:04:33;;;;;;;2.75;1.20;;;;;;;3.23;92.91;97673.63;689227;28;1502;-52
2021/11/27 01:04:53;;;;;;;2.58;1.17;;;;;;;3.35;92.59;97682.81;686907;28;1176;-52
2021/11/27 01:05:14;;;;;;;2.80;1.10;;;;;;;3.27;92.02;97678.72;687144;28;1654;-52
2021/11/27 01:05:35;;;;;;;1.38;0.98;;;;;;;3.17;91.78;97678.06;688335;28;1537;-55
2021/11/27 01:05:59;;;;;;;1.52;0.90;;;;;;;3.19;91.58;97671.16;690941;28;1383;-53
2021/11/27 01:06:22;;;;;;;1.58;0.90;;;;;;;3.16;91.67;97672.06;686394;28;1133;-54
2021/11/27 01:06:42;;;;;;;1.70;0.90;;;;;;;3.11;92.40;97675.66;683195;28;3122;-52
2021/11/27 01:07:04;;;;;;;1.87;1.00;;;;;;;3.05;92.43;97668.88;689228;28;4667;-52
2021/11/27 01:07:25;;;;;;;2.03;1.02;;;;;;;3.02;93.98;97679.28;688854;28;1020;-53
2021/11/27 01:07:46;;;;;;;2.20;1.10;;;;;;;3.01;93.99;97673.25;688467;28;1918;-53
2021/11/27 01:08:06;;;;;;;1.92;1.00;;;;;;;2.96;94.09;97672.50;688900;28;1214;-52
2021/11/27 01:08:28;;;;;;;2.05;1.00;;;;;;;2.94;93.92;97676.88;689420;28;1259;-51
2021/11/27 01:08:50;;;;;;;1.83;0.95;;;;;;;2.94;94.21;97687.19;686011;28;2463;-55
2021/11/27 01:09:13;;;;;;;1.95;1.00;;;;;;;2.94;93.65;97678.59;690249;28;1148;-52
2021/11/27 01:09:33;;;;;;;1.60;1.02;;;;;;;2.91;93.98;97676.94;690059;28;1026;-51
2021/11/27 01:09:54;;;;;;;1.93;1.17;;;;;;;2.88;93.80;97682.13;690970;28;1946;-53
2021/11/27 01:10:18;;;;;;;1.30;1.00;;;;;;;2.84;93.96;97678.78;692157;28;4390;-52
2021/11/27 01:10:45;;;;;;;1.95;1.10;;;;;;;2.82;94.58;97682.28;693658;28;1487;-55
2021/11/27 01:11:14;;;;;;;1.85;1.00;;;;;;;2.85;94.24;97677.06;698288;28;1402;-56
2021/11/27 01:11:41;;;;;;;1.88;1.02;;;;;;;2.87;94.58;97677.88;695545;28;1231;-53
2021/11/27 01:12:03;;;;;;;1.83;1.10;;;;;;;2.83;94.67;97673.66;693150;28;1155;-54
2021/11/27 01:12:23;;;;;;;2.50;1.10;;;;;;;2.79;94.02;97683.19;692931;28;1354;-56
2021/11/27 01:12:45;;;;;;;1.95;0.95;;;;;;;2.78;94.30;97678.91;693368;28;1062;-53
2021/11/27 01:13:05;;;;;;;2.35;1.10;;;;;;;2.79;94.22;97679.78;689910;28;4776;-53
2021/11/27 01:13:26;;;;;;;2.00;1.00;;;;;;;2.76;93.95;97679.84;689987;28;3731;-54
2021/11/27 01:13:48;;;;;;;1.57;1.00;;;;;;;2.73;94.17;97678.19;692434;28;1368;-55
2021/11/27 01:14:12;;;;;;;1.52;1.00;;;;;;;2.72;94.69;97679.88;695286;28;1208;-56
2021/11/27 01:14:35;;;;;;;1.30;1.00;;;;;;;2.69;94.38;97681.72;693667;28;1167;-52
2021/11/27 01:14:55;;;;;;;1.75;1.02;;;;;;;2.67;95.38;97676.59;693050;28;1198;-51
2021/11/27 01:15:24;;;;;;;2.20;1.10;;;;;;;2.65;96.25;97680.91;688465;28;1969;-53
2021/11/27 01:15:45;;;;;;;1.73;1.00;;;;;;;2.64;95.49;97679.19;690339;28;1120;-55
2021/11/27 01:16:06;;;;;;;2.03;1.10;;;;;;;2.64;94.81;97684.34;685097;28;4610;-53
2021/11/27 01:16:29;;;;;;;2.42;1.08;;;;;;;2.64;95.14;97683.53;687087;28;1975;-56
2021/11/27 01:16:54;;;;;;;1.77;1.00;;;;;;;2.62;95.24;97678.41;686942;28;2929;-54
2021/11/27 01:17:15;;;;;;;1.73;1.10;;;;;;;2.64;95.59;97678.38;685471;28;1607;-56
2021/11/27 01:17:36;;;;;;;2.10;0.93;;;;;;;2.63;95.67;97677.53;686602;28;1447;-55
2021/11/27 01:17:58;;;;;;;3.00;1.10;;;;;;;2.63;95.26;97684.41;688190;28;1193;-55
2021/11/27 01:18:19;;;;;;;2.55;1.15;;;;;;;2.65;95.40;97678.31;688488;28;1231;-53
2021/11/27 01:18:40;;;;;;;2.77;1.10;;;;;;;2.83;94.90;97681.41;687530;28;1303;-52
2021/11/27 01:19:01;;;;;;;1.77;1.00;;;;;;;2.85;94.13;97682.22;689344;28;4431;-52
2021/11/27 01:19:23;;;;;;;1.53;0.97;;;;;;;2.84;94.15;97676.22;694595;28;1207;-52
2021/11/27 01:19:44;;;;;;;2.42;1.00;;;;;;;2.84;93.85;97683.97;696467;28;2059;-54
2021/11/27 01:20:08;;;;;;;1.85;0.93;;;;;;;2.82;93.61;97677.13;696295;28;3372;-52
2021/11/27 01:20:33;;;;;;;1.50;0.88;;;;;;;2.80;94.19;97684.06;697067;28;1262;-55
2021/11/27 01:20:58;;;;;;;1.38;0.80;;;;;;;2.77;94.58;97689.25;697319;28;1335;-54
2021/11/27 01:21:23;;;;;;;1.70;1.00;;;;;;;2.93;94.34;97680.31;694123;28;1338;-52
2021/11/27 01:21:50;;;;;;;2.40;1.10;;;;;;;3.00;93.99;97683.63;694952;28;1360;-55
2021/11/27 01:22:16;;;;;;;1.60;0.90;;;;;;;2.92;94.76;97676.03;694515;28;4304;-52
2021/11/27 01:22:37;;;;;;;2.60;1.10;;;;;;;2.86;93.89;97682.19;693273;28;1538;-52
2021/11/27 01:22:58;;;;;;;2.20;1.15;;;;;;;2.81;94.47;97681.44;694980;28;3017;-53
2021/11/27 01:23:20;;;;;;;1.88;1.08;;;;;;;2.96;94.53;97684.56;691855;28;1461;-53
2021/11/27 01:23:42;;;;;;;2.25;0.90;;;;;;;3.02;94.77;97680.13;693927;28;1451;-54
2021/11/27 01:24:06;;;;;;;1.58;0.90;;;;;;;2.99;94.33;97675.03;693477;28;1207;-56
2021/11/27 01:24:26;;;;;;;1.83;1.00;;;;;;;3.07;93.82;97682.59;692119;28;1200;-55
2021/11/27 01:24:48;;;;;;;1.60;1.00;;;;;;;3.06;93.64;97681.75;693051;28;1095;-56
2021/11/27 01:25:09;;;;;;;1.70;0.90;;;;;;;2.99;93.81;97679.34;691442;28;4512;-52
2021/11/27 01:25:30;;;;;;;1.65;0.98;;;;;;;2.95;94.13;97676.00;697213;28;1548;-55
2021/11/27 01:25:51;;;;;;;1.90;1.05;;;;;;;2.92;93.93;97681.19;693085;28;1213;-55
2021/11/27 01:26:12;;;;;;;1.77;0.93;;;;;;;2.88;93.81;97675.28;693462;28;4774;-53
2021/11/27 01:26:34;;;;;;;1.73;0.90;;;;;;;2.86;94.15;97676.19;691657;28;3849;-53
2021/11/27 01:26:54;;;;;;;1.98;0.90;;;;;;;2.83;94.22;97677.09;692972;28;1448;-53
2021/11/27 01:27:16;;;;;;;1.50;0.90;;;;;;;2.80;94.39;97681.47;690629;28;1459;-53
2021/11/27 01:27:37;;;;;;;2.10;1.00;;;;;;;2.75;95.20;97676.41;689574;28;1914;-54
2021/11/27 01:27:57;;;;;;;2.60;1.00;;;;;;;2.75;96.24;97680.72;691067;28;4600;-56
2021/11/27 01:28:20;;;;;;;1.37;0.90;;;;;;;2.87;95.87;97685.63;688777;28;1591;-52
2021/11/27 01:28:40;;;;;;;1.95;1.00;;;;;;;2.82;95.61;97685.69;689534;28;1254;-55
2021/11/27 01:29:02;;;;;;;1.60;0.97;;;;;;;2.79;95.66;97684.94;689199;28;1227;-54
2021/11/27 01:29:23;;;;;;;2.38;1.08;;;;;;;2.79;94.90;97679.78;689237;28;3468;-56
2021/11/27 01:29:44;;;;;;;1.75;1.00;;;;;;;2.77;94.91;97682.41;689105;28;3581;-54
2021/11/27 01:30:10;;;;;;;1.40;1.00;;;;;;;2.79;95.34;97688.34;691450;28;1654;-55
2021/11/27 01:30:31;;;;;;;1.60;0.93;;;;;;;2.81;95.19;97683.16;690777;28;1322;-54
2021/11/27 01:30:55;;;;;;;2.00;1.10;;;;;;;2.86;95.66;97683.91;687977;28;1240;-53
2021/11/27 01:31:16;;;;;;;2.13;1.10;;;;;;;2.82;95.05;97682.28;688989;28;6798;-55
2021/11/27 01:31:39;;;;;;;1.77;1.13;;;;;;;2.81;95.63;97688.31;690720;28;1231;-53
2021/11/27 01:31:59;;;;;;;1.77;1.15;;;;;;;2.85;95.18;97683.09;687355;28;1283;-54
2021/11/27 01:32:20;;;;;;;1.53;1.10;;;;;;;2.82;94.87;97679.72;690137;28;1889;-54
2021/11/27 01:32:41;;;;;;;1.83;1.10;;;;;;;2.78;95.06;97680.66;690980;28;3399;-54
2021/11/27 01:33:03;;;;;;;1.80;1.00;;;;;;;2.74;95.29;97677.28;690742;28;1480;-55
2021/11/27 01:33:25;;;;;;;2.40;1.00;;;;;;;2.75;95.80;97676.41;693675;28;1427;-53
2021/11/27 01:33:46;;;;;;;3.67;1.10;;;;;;;2.73;95.38;97676.44;693478;28;1092;-54
2021/11/27 01:34:07;;;;;;;2.10;1.00;;;;;;;2.72;95.27;97681.63;692095;28;4494;-53
2021/11/27 01:34:28;;;;;;;2.40;1.30;;;;;;;2.70;95.43;97684.25;692309;28;1578;-54
2021/11/27 01:34:49;;;;;;;2.25;1.10;;;;;;;2.70;95.29;97681.66;692522;28;1382;-54
2021/11/27 01:35:10;;;;;;;1.93;1.00;;;;;;;2.69;95.42;97671.38;692435;28;1298;-52
2021/11/27 01:35:30;;;;;;;2.00;1.10;;;;;;;2.73;95.85;97684.19;690766;28;1351;-55
2021/11/27 01:35:52;;;;;;;2.42;1.10;;;;;;;2.70;95.11;97684.25;692226;28;3735;-54
2021/11/27 01:36:13;;;;;;;3.95;1.20;;;;;;;2.67;96.26;97679.16;692694;28;2688;-55
2021/11/27 01:36:35;;;;;;;3.47;1.00;;;;;;;2.71;96.47;97680.78;691379;28;1452;-54
2021/11/27 01:36:55;;;;;;;2.40;1.10;;;;;;;2.83;95.68;97678.84;694395;28;1914;-54
2021/11/27 01:37:16;;;;;;;2.05;1.20;;;;;;;2.86;95.42;97683.91;696152;28;4694;-53
2021/11/27 01:37:38;;;;;;;1.70;1.00;;;;;;;2.85;95.16;97679.63;696942;28;1154;-56
2021/11/27 01:37:59;;;;;;;1.50;0.90;;;;;;;2.86;95.62;97682.19;697069;28;1210;-54
2021/11/27 01:38:20;;;;;;;2.07;1.03;;;;;;;2.87;95.07;97685.63;693879;28;1384;-55
2021/11/27 01:38:41;;;;;;;2.20;1.10;;;;;;;2.83;94.90;97673.66;689974;28;1281;-53
2021/11/27 01:39:05;;;;;;;1.90;1.08;;;;;;;2.86;95.28;97678.75;685747;28;3161;-57
2021/11/27 01:39:25;;;;;;;1.42;0.90;;;;;;;3.08;93.97;97678.31;685602;28;2820;-54
2021/11/27 01:39:46;;;;;;;1.53;1.00;;;;;;;3.07;92.98;97672.28;684955;28;1489;-52
2021/11/27 01:40:14;;;;;;;2.30;1.00;;;;;;;2.99;93.74;97679.34;685882;28;4447;-52
2021/11/27 01:40:35;;;;;;;2.15;0.90;;;;;;;2.94;94.29;97681.19;690080;28;1056;-54
2021/11/27 01:40:56;;;;;;;2.15;1.00;;;;;;;2.89;93.94;97681.25;693292;28;1624;-54
2021/11/27 01:41:17;;;;;;;2.70;1.00;;;;;;;2.86;94.55;97679.59;693430;28;1258;-55
2021/11/27 01:41:38;;;;;;;2.15;1.00;;;;;;;2.83;94.05;97681.41;690555;28;1231;-54
2021/11/27 01:41:59;;;;;;;1.98;0.93;;;;;;;2.81;94.64;97680.59;689494;28;1389;-54
2021/11/27 01:42:20;;;;;;;1.92;1.00;;;;;;;2.79;94.64;97678.03;690729;28;1541;-54
2021/11/27 01:42:43;;;;;;;1.92;1.10;;;;;;;2.80;94.81;97679.75;687185;28;3441;-53
2021/11/27 01:43:05;;;;;;;2.90;1.20;;;;;;;2.82;94.57;97677.97;690384;28;4486;-52
2021/11/27 01:43:26;;;;;;;1.85;1.02;;;;;;;2.80;95.17;97679.75;695179;28;1496;-52
2021/11/27 01:43:47;;;;;;;2.60;1.00;;;;;;;2.86;94.23;97684.75;694976;28;1337;-54
2021/11/27 01:44:09;;;;;;;2.08;1.00;;;;;;;2.84;94.36;97671.06;693023;28;1283;-52
2021/11/27 01:44:30;;;;;;;1.88;1.10;;;;;;;2.95;94.38;97683.72;691693;28;1582;-55
2021/11/27 01:44:50;;;;;;;2.42;1.00;;;;;;;2.97;94.11;97681.94;691157;28;1557;-55
2021/11/27 01:45:14;;;;;;;2.43;1.00;;;;;;;2.90;93.89;97680.38;690462;28;1621;-54
2021/11/27 01:45:37;;;;;;;2.08;1.10;;;;;;;2.86;94.51;97683.91;689501;28;3567;-54
2021/11/27 01:45:57;;;;;;;2.20;1.00;;;;;;;2.83;94.75;97678.84;690734;28;4447;-53